createdAt,value
2022-08-22T00:00:16.789Z,26.12
2022-08-22T00:03:01.449Z,28.56
2022-08-22T00:03:02.259Z,28.74
2022-08-22T00:03:11.075Z,26.50
2022-08-22T00:03:17.450Z,26.17
2022-08-22T00:05:56.009Z,26.04
2022-08-22T00:08:33.649Z,26.09
2022-08-22T00:11:16.251Z,25.97
2022-08-22T00:13:52.730Z,25.81
2022-08-22T00:16:35.279Z,25.65
2022-08-22T00:19:02.902Z,25.69
2022-08-22T00:21:36.659Z,26.10
2022-08-22T00:24:29.122Z,26.73
2022-08-22T00:27:06.063Z,26.86
2022-08-22T00:29:47.356Z,26.58
2022-08-22T00:32:42.380Z,26.72
2022-08-22T00:35:23.828Z,26.54
2022-08-22T00:38:04.955Z,26.32
2022-08-22T00:40:34.460Z,26.18
2022-08-22T00:43:10.143Z,26.15
2022-08-22T00:45:45.936Z,26.68
2022-08-22T00:48:22.166Z,26.32
2022-08-22T00:51:05.405Z,26.40
2022-08-22T00:53:38.062Z,26.60
2022-08-22T00:56:48.470Z,27.16
2022-08-22T00:59:39.446Z,26.90
2022-08-22T01:02:21.942Z,26.57
2022-08-22T01:05:11.688Z,26.05
2022-08-22T01:07:58.216Z,26.15
2022-08-22T01:10:46.306Z,26.08
2022-08-22T01:13:36.721Z,25.85
2022-08-22T01:16:34.314Z,26.00
2022-08-22T01:19:18.686Z,25.72
2022-08-22T01:22:01.229Z,26.30
2022-08-22T01:25:21.909Z,26.59
2022-08-22T01:28:20.358Z,26.69
2022-08-22T01:31:14.308Z,26.54
2022-08-22T01:34:38.504Z,26.33
2022-08-22T01:37:17.776Z,26.02
2022-08-22T01:40:05.668Z,25.50
2022-08-22T01:42:41.964Z,25.39
2022-08-22T01:45:14.621Z,25.14
2022-08-22T01:47:55.688Z,25.18
2022-08-22T01:50:36.917Z,25.15
2022-08-22T01:53:38.843Z,24.69
2022-08-22T01:56:19.215Z,24.56
2022-08-22T01:59:01.806Z,24.95
2022-08-22T02:01:57.944Z,25.68
2022-08-22T02:04:38.791Z,26.17
2022-08-22T02:07:05.496Z,25.60
2022-08-22T02:09:32.167Z,25.96
2022-08-22T02:12:21.667Z,26.03
2022-08-22T02:15:15.065Z,25.74
2022-08-22T02:17:55.917Z,26.16
2022-08-22T02:20:28.902Z,26.11
2022-08-22T02:23:28.152Z,26.05
2022-08-22T02:25:58.866Z,26.03
2022-08-22T02:28:38.057Z,26.09
2022-08-22T02:31:16.539Z,25.46
2022-08-22T02:33:46.633Z,25.06
2022-08-22T02:36:44.468Z,25.34
2022-08-22T02:39:34.759Z,24.80
2022-08-22T02:42:40.455Z,24.56
2022-08-22T02:45:24.243Z,24.46
2022-08-22T02:47:55.076Z,24.33
2022-08-22T02:50:55.150Z,23.90
2022-08-22T02:53:34.118Z,23.84
2022-08-22T02:56:08.682Z,23.94
2022-08-22T02:58:53.601Z,23.79
2022-08-22T03:01:45.504Z,23.98
2022-08-22T03:04:46.574Z,23.86
2022-08-22T03:07:22.626Z,23.68
2022-08-22T03:10:13.965Z,23.76
2022-08-22T03:13:02.577Z,24.18
2022-08-22T03:15:38.072Z,24.20
2022-08-22T03:18:31.493Z,24.29
2022-08-22T03:21:11.738Z,24.22
2022-08-22T03:23:44.512Z,24.08
2022-08-22T03:26:14.403Z,24.06
2022-08-22T03:28:52.631Z,24.04
2022-08-22T03:31:26.820Z,23.86
2022-08-22T03:34:20.329Z,23.87
2022-08-22T03:37:05.929Z,23.77
2022-08-22T03:39:44.127Z,23.83
2022-08-22T03:42:35.555Z,23.74
2022-08-22T03:45:18.131Z,23.58
2022-08-22T03:48:16.527Z,23.54
2022-08-22T03:51:17.593Z,23.66
2022-08-22T03:54:12.170Z,23.56
2022-08-22T03:56:41.638Z,23.55
2022-08-22T03:59:11.297Z,23.62
2022-08-22T04:01:53.713Z,23.61
2022-08-22T04:04:53.028Z,23.56
2022-08-22T04:07:48.976Z,23.56
2022-08-22T04:11:10.233Z,23.53
2022-08-22T04:13:39.384Z,23.53
2022-08-22T04:16:20.766Z,23.68
2022-08-22T04:19:05.770Z,23.69
2022-08-22T04:21:53.016Z,23.54
2022-08-22T04:24:52.234Z,23.49
2022-08-22T04:27:58.335Z,23.42
2022-08-22T04:31:01.581Z,23.52
2022-08-22T04:33:35.091Z,23.64
2022-08-22T04:36:30.213Z,23.85
2022-08-22T04:39:18.416Z,23.92
2022-08-22T04:41:50.417Z,23.80
2022-08-22T04:44:31.933Z,24.26
2022-08-22T04:47:24.588Z,24.19
2022-08-22T04:49:59.686Z,24.08
2022-08-22T04:52:41.109Z,23.84
2022-08-22T04:55:22.880Z,23.65
2022-08-22T04:58:00.197Z,23.66
2022-08-22T05:00:39.509Z,23.66
2022-08-22T05:03:12.203Z,23.67
2022-08-22T05:05:43.114Z,23.55
2022-08-22T05:08:15.072Z,23.58
2022-08-22T05:10:46.491Z,23.57
2022-08-22T05:13:32.591Z,23.71
2022-08-22T05:16:04.327Z,23.71
2022-08-22T05:18:42.212Z,23.86
2022-08-22T05:21:13.806Z,23.72
2022-08-22T05:23:51.202Z,23.76
2022-08-22T05:26:20.287Z,23.73
2022-08-22T05:28:56.399Z,23.79
2022-08-22T05:31:27.822Z,23.77
2022-08-22T05:34:01.217Z,23.97
2022-08-22T05:36:31.695Z,23.95
2022-08-22T05:39:08.804Z,24.00
2022-08-22T05:41:40.754Z,24.00
2022-08-22T05:44:18.436Z,24.16
2022-08-22T05:46:50.310Z,24.36
2022-08-22T05:49:27.916Z,24.43
2022-08-22T05:52:07.888Z,24.35
2022-08-22T05:54:49.052Z,24.34
2022-08-22T05:57:37.199Z,24.45
2022-08-22T06:00:11.136Z,24.65
2022-08-22T06:02:54.737Z,24.70
2022-08-22T06:05:33.469Z,24.90
2022-08-22T06:08:11.750Z,24.98
2022-08-22T06:10:57.731Z,25.02
2022-08-22T06:13:34.906Z,24.99
2022-08-22T06:16:13.845Z,25.08
2022-08-22T06:18:43.399Z,24.96
2022-08-22T06:21:26.424Z,25.01
2022-08-22T06:23:57.687Z,24.98
2022-08-22T06:26:38.255Z,25.22
2022-08-22T06:29:08.828Z,25.21
2022-08-22T06:31:47.042Z,25.27
2022-08-22T06:34:35.639Z,25.29
2022-08-22T06:37:05.976Z,25.12
2022-08-22T06:39:36.696Z,25.09
2022-08-22T06:42:13.346Z,25.12
2022-08-22T06:44:47.798Z,25.15
2022-08-22T06:47:24.908Z,25.15
2022-08-22T06:50:02.021Z,25.21
2022-08-22T06:52:32.714Z,25.09
2022-08-22T06:55:05.744Z,25.08
2022-08-22T06:58:03.669Z,25.26
2022-08-22T07:00:34.499Z,25.35
2022-08-22T07:03:20.374Z,25.45
2022-08-22T07:05:47.469Z,25.42
2022-08-22T07:08:19.055Z,25.44
2022-08-22T07:10:56.458Z,25.29
2022-08-22T07:13:25.224Z,25.31
2022-08-22T07:15:56.418Z,25.45
2022-08-22T07:18:27.831Z,25.40
2022-08-22T07:20:59.269Z,25.35
2022-08-22T07:23:33.396Z,25.48
2022-08-22T07:26:00.030Z,25.48
2022-08-22T07:28:51.633Z,25.41
2022-08-22T07:31:38.442Z,25.52
2022-08-22T07:34:31.280Z,25.47
2022-08-22T07:37:26.352Z,25.55
2022-08-22T07:40:32.344Z,25.58
2022-08-22T07:43:06.360Z,25.48
2022-08-22T07:45:39.421Z,25.58
2022-08-22T07:48:11.433Z,25.66
2022-08-22T07:50:44.004Z,25.70
2022-08-22T07:53:25.980Z,25.76
2022-08-22T07:55:56.220Z,25.70
2022-08-22T07:58:27.272Z,26.03
2022-08-22T08:00:54.983Z,25.90
2022-08-22T08:03:25.208Z,25.77
2022-08-22T08:05:52.567Z,25.83
2022-08-22T08:08:25.761Z,25.76
2022-08-22T08:10:56.265Z,25.82
2022-08-22T08:13:35.364Z,25.94
2022-08-22T08:16:06.577Z,26.04
2022-08-22T08:18:36.228Z,26.15
2022-08-22T08:21:07.160Z,25.94
2022-08-22T08:23:45.128Z,25.89
2022-08-22T08:26:17.357Z,26.02
2022-08-22T08:28:55.390Z,26.17
2022-08-22T08:31:35.349Z,26.15
2022-08-22T08:34:10.660Z,26.22
2022-08-22T08:36:49.698Z,26.52
2022-08-22T08:39:23.052Z,26.61
2022-08-22T08:41:56.759Z,26.56
2022-08-22T08:44:56.577Z,26.56
2022-08-22T08:47:36.647Z,26.56
2022-08-22T08:50:25.324Z,26.68
2022-08-22T08:53:25.879Z,26.75
2022-08-22T08:56:25.774Z,26.82
2022-08-22T08:59:18.543Z,26.88
2022-08-22T09:02:20.472Z,27.18
2022-08-22T09:04:56.546Z,27.30
2022-08-22T09:07:48.457Z,27.18
2022-08-22T09:10:27.430Z,27.15
2022-08-22T09:13:23.682Z,27.40
2022-08-22T09:16:28.004Z,27.50
2022-08-22T09:19:44.280Z,27.32
2022-08-22T09:22:54.558Z,27.39
2022-08-22T09:25:38.394Z,27.46
2022-08-22T09:28:19.907Z,27.47
2022-08-22T09:31:01.861Z,27.46
2022-08-22T09:33:52.838Z,27.58
2022-08-22T09:36:26.931Z,27.68
2022-08-22T09:39:12.282Z,27.69
2022-08-22T09:41:51.707Z,27.71
2022-08-22T09:44:33.700Z,27.87
2022-08-22T09:47:31.297Z,28.13
2022-08-22T09:50:22.385Z,28.19
2022-08-22T09:53:04.911Z,28.05
2022-08-22T09:55:52.925Z,28.03
2022-08-22T09:58:19.713Z,28.27
2022-08-22T10:00:58.860Z,28.45
2022-08-22T10:03:46.941Z,28.72
2022-08-22T10:06:22.042Z,28.91
2022-08-22T10:09:05.603Z,28.88
2022-08-22T10:11:53.989Z,28.94
2022-08-22T10:14:29.383Z,29.24
2022-08-22T10:17:26.608Z,29.44
2022-08-22T10:20:11.618Z,29.31
2022-08-22T10:22:57.045Z,29.01
2022-08-22T10:25:53.037Z,28.92
2022-08-22T10:28:35.535Z,28.86
2022-08-22T10:31:27.041Z,28.87
2022-08-22T10:34:27.669Z,29.01
2022-08-22T10:37:12.804Z,29.09
2022-08-22T10:40:23.429Z,29.15
2022-08-22T10:43:06.801Z,29.49
2022-08-22T10:45:40.686Z,30.11
2022-08-22T10:48:23.771Z,30.35
2022-08-22T10:51:00.071Z,30.53
2022-08-22T10:53:53.184Z,30.31
2022-08-22T10:56:39.049Z,30.16
2022-08-22T10:59:29.365Z,30.49
2022-08-22T11:02:16.055Z,30.88
2022-08-22T11:05:08.435Z,30.74
2022-08-22T11:07:48.637Z,30.43
2022-08-22T11:10:29.059Z,30.32
2022-08-22T11:13:04.445Z,30.25
2022-08-22T11:15:56.454Z,30.42
2022-08-22T11:18:36.622Z,30.72
2022-08-22T11:21:10.555Z,30.85
2022-08-22T11:23:56.843Z,30.54
2022-08-22T11:26:47.336Z,30.24
2022-08-22T11:29:48.292Z,30.78
2022-08-22T11:32:51.269Z,31.41
2022-08-22T11:35:31.883Z,31.66
2022-08-22T11:38:01.706Z,31.08
2022-08-22T11:41:13.875Z,31.36
2022-08-22T11:44:17.914Z,32.07
2022-08-22T11:46:48.072Z,32.12
2022-08-22T11:49:36.458Z,32.01
2022-08-22T11:52:13.947Z,31.86
2022-08-22T11:55:04.066Z,31.99
2022-08-22T11:57:37.571Z,31.71
2022-08-22T12:00:10.756Z,31.27
2022-08-22T12:03:03.527Z,31.12
2022-08-22T12:05:35.946Z,31.75
2022-08-22T12:08:15.840Z,32.29
2022-08-22T12:10:56.567Z,32.01
2022-08-22T12:13:46.142Z,31.83
2022-08-22T12:16:39.992Z,32.19
2022-08-22T12:19:32.921Z,32.48
2022-08-22T12:22:49.892Z,32.51
2022-08-22T12:25:19.910Z,32.66
2022-08-22T12:27:55.166Z,33.42
2022-08-22T12:30:54.828Z,33.64
2022-08-22T12:33:33.069Z,33.30
2022-08-22T12:36:22.046Z,32.87
2022-08-22T12:39:20.010Z,32.54
2022-08-22T12:42:07.331Z,33.53
2022-08-22T12:45:12.180Z,33.79
2022-08-22T12:48:03.593Z,34.37
2022-08-22T12:50:47.942Z,34.13
2022-08-22T12:53:32.960Z,33.37
2022-08-22T12:56:26.384Z,32.53
2022-08-22T12:59:22.063Z,32.18
2022-08-22T13:01:52.837Z,32.86
2022-08-22T13:04:33.248Z,32.88
2022-08-22T13:07:25.306Z,32.17
2022-08-22T13:10:00.005Z,31.35
2022-08-22T13:12:39.969Z,30.83
2022-08-22T13:15:22.937Z,30.28
2022-08-22T13:17:54.695Z,30.48
2022-08-22T13:20:26.835Z,30.64
2022-08-22T13:22:56.060Z,30.49
2022-08-22T13:25:30.001Z,30.69
2022-08-22T13:28:03.723Z,31.06
2022-08-22T13:30:39.388Z,31.24
2022-08-22T13:33:11.255Z,31.37
2022-08-22T13:35:51.851Z,31.59
2022-08-22T13:38:26.552Z,31.79
2022-08-22T13:40:55.835Z,31.64
2022-08-22T13:43:27.726Z,31.01
2022-08-22T13:46:01.682Z,31.14
2022-08-22T13:48:50.924Z,30.72
2022-08-22T13:51:30.339Z,30.65
2022-08-22T13:54:40.167Z,30.59
2022-08-22T13:57:25.303Z,30.70
2022-08-22T14:00:06.097Z,30.85
2022-08-22T14:02:46.161Z,30.73
2022-08-22T14:05:33.262Z,30.56
2022-08-22T14:08:13.061Z,30.18
2022-08-22T14:10:55.089Z,30.35
2022-08-22T14:13:30.528Z,30.41
2022-08-22T14:16:10.470Z,30.50
2022-08-22T14:18:45.458Z,30.51
2022-08-22T14:21:45.443Z,30.45
2022-08-22T14:24:25.718Z,30.27
2022-08-22T14:27:06.556Z,29.87
2022-08-22T14:29:40.494Z,29.57
2022-08-22T14:32:37.777Z,29.45
2022-08-22T14:35:37.976Z,29.43
2022-08-22T14:38:32.571Z,29.35
2022-08-22T14:41:10.451Z,29.47
2022-08-22T14:44:02.002Z,29.93
2022-08-22T14:46:43.163Z,29.97
2022-08-22T14:49:13.672Z,29.40
2022-08-22T14:51:47.730Z,29.48
2022-08-22T14:54:21.419Z,29.49
2022-08-22T14:56:52.486Z,29.83
2022-08-22T14:59:34.895Z,29.70
2022-08-22T15:02:10.826Z,29.68
2022-08-22T15:04:49.920Z,30.32
2022-08-22T15:07:29.550Z,31.09
2022-08-22T15:10:33.160Z,31.30
2022-08-22T15:13:08.010Z,31.17
2022-08-22T15:15:52.572Z,30.92
2022-08-22T15:18:34.471Z,30.94
2022-08-22T15:21:12.357Z,31.44
2022-08-22T15:23:45.396Z,31.72
2022-08-22T15:26:23.041Z,31.68
2022-08-22T15:28:57.968Z,31.72
2022-08-22T15:31:25.456Z,31.78
2022-08-22T15:34:06.754Z,32.25
2022-08-22T15:36:34.088Z,32.42
2022-08-22T15:39:27.513Z,31.77
2022-08-22T15:41:55.527Z,31.05
2022-08-22T15:44:32.596Z,30.63
2022-08-22T15:46:59.814Z,30.27
2022-08-22T15:49:30.645Z,30.36
2022-08-22T15:52:00.992Z,30.34
2022-08-22T15:54:51.158Z,30.05
2022-08-22T15:57:23.497Z,29.87
2022-08-22T15:59:54.267Z,29.77
2022-08-22T16:02:42.440Z,29.78
2022-08-22T16:05:09.040Z,29.71
2022-08-22T16:07:49.977Z,29.63
2022-08-22T16:10:22.715Z,29.37
2022-08-22T16:13:11.622Z,29.65
2022-08-22T16:15:50.311Z,29.90
2022-08-22T16:18:33.375Z,30.04
2022-08-22T16:21:32.756Z,30.02
2022-08-22T16:24:00.832Z,29.76
2022-08-22T16:26:30.596Z,29.88
2022-08-22T16:29:18.015Z,29.93
2022-08-22T16:31:44.913Z,29.70
2022-08-22T16:34:20.612Z,29.63
2022-08-22T16:37:09.115Z,29.70
2022-08-22T16:39:41.072Z,29.45
2022-08-22T16:42:14.412Z,29.36
2022-08-22T16:44:45.464Z,29.34
2022-08-22T16:47:30.440Z,29.33
2022-08-22T16:50:22.368Z,29.54
2022-08-22T16:53:27.409Z,29.67
2022-08-22T16:56:38.469Z,29.55
2022-08-22T16:59:24.120Z,29.55
2022-08-22T17:02:07.221Z,29.30
2022-08-22T17:05:02.845Z,29.11
2022-08-22T17:07:38.449Z,29.26
2022-08-22T17:10:27.167Z,29.24
2022-08-22T17:13:15.159Z,29.18
2022-08-22T17:16:17.613Z,29.33
2022-08-22T17:19:02.242Z,29.22
2022-08-22T17:21:39.032Z,29.03
2022-08-22T17:24:33.590Z,28.98
2022-08-22T17:27:19.463Z,28.93
2022-08-22T17:30:10.663Z,28.87
2022-08-22T17:33:10.119Z,29.02
2022-08-22T17:35:45.267Z,28.98
2022-08-22T17:38:46.501Z,28.81
2022-08-22T17:41:40.912Z,28.63
2022-08-22T17:44:23.006Z,28.49
2022-08-22T17:47:08.449Z,28.40
2022-08-22T17:49:41.254Z,28.27
2022-08-22T17:52:17.007Z,28.38
2022-08-22T17:54:52.671Z,28.41
2022-08-22T17:57:31.188Z,28.57
2022-08-22T18:00:15.331Z,28.42
2022-08-22T18:02:52.216Z,28.29
2022-08-22T18:05:57.413Z,28.46
2022-08-22T18:11:40.167Z,28.67
2022-08-22T18:14:19.089Z,28.64
2022-08-22T18:16:52.821Z,28.62
2022-08-22T18:19:56.460Z,28.56
2022-08-22T18:22:32.100Z,28.63
2022-08-22T18:25:20.526Z,28.70
2022-08-22T18:27:53.950Z,28.72
2022-08-22T18:30:33.229Z,28.62
2022-08-22T18:33:23.481Z,28.65
2022-08-22T18:35:55.727Z,28.58
2022-08-22T18:38:55.698Z,28.60
2022-08-22T18:41:29.259Z,28.55
2022-08-22T18:43:59.949Z,28.65
2022-08-22T18:46:31.944Z,28.66
2022-08-22T18:49:15.629Z,28.74
2022-08-22T18:51:43.472Z,28.71
2022-08-22T18:54:13.520Z,28.73
2022-08-22T18:56:50.320Z,28.73
2022-08-22T18:59:36.062Z,28.66
2022-08-22T19:02:21.480Z,28.63
2022-08-22T19:05:17.693Z,28.43
2022-08-22T19:08:02.574Z,28.50
2022-08-22T19:10:34.464Z,28.52
2022-08-22T19:13:15.404Z,28.31
2022-08-22T19:16:04.887Z,28.41
2022-08-22T19:18:43.721Z,28.34
2022-08-22T19:21:37.742Z,28.42
2022-08-22T19:24:09.000Z,28.30
2022-08-22T19:26:42.492Z,28.17
2022-08-22T19:29:12.638Z,28.26
2022-08-22T19:31:41.229Z,28.17
2022-08-22T19:34:17.028Z,28.16
2022-08-22T19:36:45.668Z,28.14
2022-08-22T19:39:54.449Z,28.18
2022-08-22T19:42:21.382Z,28.00
2022-08-22T19:45:30.762Z,28.38
2022-08-22T19:48:11.722Z,28.28
2022-08-22T19:50:41.669Z,28.12
2022-08-22T19:53:34.611Z,28.00
2022-08-22T19:56:26.761Z,28.02
2022-08-22T19:59:04.535Z,27.91
2022-08-22T20:01:43.332Z,27.75
2022-08-22T20:04:39.410Z,27.76
2022-08-22T20:07:31.523Z,27.77
2022-08-22T20:10:05.309Z,27.74
2022-08-22T20:12:45.641Z,27.79
2022-08-22T20:15:19.149Z,27.74
2022-08-22T20:18:11.652Z,27.77
2022-08-22T20:20:38.293Z,27.78
2022-08-22T20:23:28.739Z,27.76
2022-08-22T20:25:57.128Z,27.69
2022-08-22T20:28:29.877Z,27.71
2022-08-22T20:31:03.402Z,27.74
2022-08-22T20:33:38.395Z,27.90
2022-08-22T20:36:13.861Z,28.11
2022-08-22T20:39:00.131Z,28.14
2022-08-22T20:41:30.061Z,27.61
2022-08-22T20:44:14.083Z,27.55
2022-08-22T20:46:43.520Z,27.49
2022-08-22T20:49:18.162Z,27.73
2022-08-22T20:51:54.250Z,28.00
2022-08-22T20:54:26.131Z,27.73
2022-08-22T20:56:56.004Z,27.43
2022-08-22T20:59:30.450Z,27.36
2022-08-22T21:02:24.321Z,27.32
2022-08-22T21:05:04.374Z,27.51
2022-08-22T21:07:39.939Z,27.35
2022-08-22T21:10:34.155Z,27.49
2022-08-22T21:13:04.425Z,27.88
2022-08-22T21:15:48.028Z,27.79
2022-08-22T21:18:34.190Z,27.75
2022-08-22T21:21:21.185Z,27.72
2022-08-22T21:24:01.197Z,27.45
2022-08-22T21:26:38.088Z,27.36
2022-08-22T21:29:12.195Z,27.19
2022-08-22T21:31:43.951Z,27.29
2022-08-22T21:34:17.282Z,27.58
2022-08-22T21:36:44.231Z,27.57
2022-08-22T21:39:31.352Z,27.34
2022-08-22T21:42:01.031Z,27.71
2022-08-22T21:44:30.768Z,27.71
2022-08-22T21:47:15.662Z,27.63
2022-08-22T21:50:13.895Z,27.85
2022-08-22T21:53:00.330Z,27.75
2022-08-22T21:55:39.018Z,27.82
2022-08-22T21:58:10.465Z,27.74
2022-08-22T22:01:04.022Z,27.63
2022-08-22T22:03:36.831Z,27.24
2022-08-22T22:06:06.264Z,27.12
2022-08-22T22:08:33.763Z,26.89
2022-08-22T22:11:06.202Z,26.68
2022-08-22T22:13:35.803Z,26.45
2022-08-22T22:16:02.634Z,26.58
2022-08-22T22:18:33.720Z,26.46
2022-08-22T22:21:00.880Z,26.49
2022-08-22T22:23:31.604Z,26.54
2022-08-22T22:26:02.635Z,26.54
2022-08-22T22:28:36.894Z,26.54
2022-08-22T22:31:05.143Z,26.63
2022-08-22T22:33:35.295Z,26.87
2022-08-22T22:36:18.311Z,26.71
2022-08-22T22:38:45.324Z,26.62
2022-08-22T22:41:12.836Z,26.29
2022-08-22T22:43:39.696Z,26.05
2022-08-22T22:46:06.743Z,26.16
2022-08-22T22:48:33.787Z,26.20
2022-08-22T22:51:07.654Z,26.34
2022-08-22T22:53:40.156Z,26.03
2022-08-22T22:56:10.133Z,25.72
2022-08-22T22:58:40.429Z,25.81
2022-08-22T23:01:13.338Z,25.67
2022-08-22T23:03:40.189Z,25.71
2022-08-22T23:06:28.663Z,25.65
2022-08-22T23:08:56.147Z,25.52
2022-08-22T23:11:27.127Z,25.67
2022-08-22T23:13:54.342Z,25.92
2022-08-22T23:16:24.524Z,26.26
2022-08-22T23:18:51.225Z,26.31
2022-08-22T23:21:20.548Z,26.24
2022-08-22T23:23:48.162Z,26.36
2022-08-22T23:26:16.016Z,26.43
2022-08-22T23:28:43.845Z,26.43
2022-08-22T23:31:16.905Z,26.22
2022-08-22T23:33:45.016Z,26.63
2022-08-22T23:36:19.808Z,26.84
2022-08-22T23:38:47.748Z,27.06
2022-08-22T23:41:17.716Z,27.02
2022-08-22T23:43:46.849Z,26.76
2022-08-22T23:46:15.442Z,26.51
2022-08-22T23:48:42.336Z,26.53
2022-08-22T23:51:14.605Z,26.37
2022-08-22T23:53:42.157Z,26.22
2022-08-22T23:56:23.714Z,26.33
2022-08-22T23:58:50.674Z,26.41
